Laporte, Pennsylvania
Current Conditions -  °F | °C
As of 8:41 PM on Wednesday 26 Nov 2014 (Local Time) from KIPT Reporting Station
Overcast Overcast  
Wind Chill: 27°   Ceiling: 6000
Heat Index: 32°   Visibility: 10mi
Dew Point: 30°   Wind: 5mph
Humidity: 92%   Direction: 280°W
Pressure: 29.96"   Gusts: NA
Location:  41.42°N, 76.49°W
Report Text: KIPT 270141Z 28004KT 10SM FEW007 BKN060 OVC070 00/M01 A2996 RMK AO2 SNE24 P0000 T00001011
Loading
Personal Weather Stations






























Interactive Weather Map New forecast layout! Learn more

10-Day Weather Forecast

Advertisements
Track Severe Weather on mobile